sensor_id;sensor_type;location;lat;lon;timestamp;temperature;humidity
17174;DHT22;8702;48.130;-1.696;2023-04-25T00:02:09;10.10;99.90
17174;DHT22;8702;48.130;-1.696;2023-04-25T00:04:37;10.20;99.90
17174;DHT22;8702;48.130;-1.696;2023-04-25T00:07:04;10.20;99.90
17174;DHT22;8702;48.130;-1.696;2023-04-25T00:09:33;10.20;99.90
17174;DHT22;8702;48.130;-1.696;2023-04-25T00:12:00;10.20;99.90
17174;DHT22;8702;48.130;-1.696;2023-04-25T00:14:27;10.00;99.90
17174;DHT22;8702;48.130;-1.696;2023-04-25T00:16:59;10.00;99.90
17174;DHT22;8702;48.130;-1.696;2023-04-25T00:19:26;10.10;99.90
17174;DHT22;8702;48.130;-1.696;2023-04-25T00:21:53;9.90;99.90
17174;DHT22;8702;48.130;-1.696;2023-04-25T00:24:20;9.90;99.90
17174;DHT22;8702;48.130;-1.696;2023-04-25T00:26:49;9.90;99.90
17174;DHT22;8702;48.130;-1.696;2023-04-25T00:29:16;9.80;99.90
17174;DHT22;8702;48.130;-1.696;2023-04-25T00:31:43;9.90;99.90
17174;DHT22;8702;48.130;-1.696;2023-04-25T00:34:10;9.80;99.90
17174;DHT22;8702;48.130;-1.696;2023-04-25T00:36:37;9.90;99.90
17174;DHT22;8702;48.130;-1.696;2023-04-25T00:39:04;9.90;99.90
17174;DHT22;8702;48.130;-1.696;2023-04-25T00:41:32;10.00;99.90
17174;DHT22;8702;48.130;-1.696;2023-04-25T00:44:01;10.00;99.90
17174;DHT22;8702;48.130;-1.696;2023-04-25T00:46:29;10.10;99.90
17174;DHT22;8702;48.130;-1.696;2023-04-25T00:48:56;10.00;99.90
17174;DHT22;8702;48.130;-1.696;2023-04-25T00:51:23;9.90;99.90
17174;DHT22;8702;48.130;-1.696;2023-04-25T00:53:52;9.90;99.90
17174;DHT22;8702;48.130;-1.696;2023-04-25T00:56:21;9.90;99.90
17174;DHT22;8702;48.130;-1.696;2023-04-25T00:58:48;10.00;99.90
17174;DHT22;8702;48.130;-1.696;2023-04-25T01:01:17;10.00;99.90
17174;DHT22;8702;48.130;-1.696;2023-04-25T01:03:45;10.00;99.90
17174;DHT22;8702;48.130;-1.696;2023-04-25T01:06:17;9.90;99.90
17174;DHT22;8702;48.130;-1.696;2023-04-25T01:08:44;9.80;99.90
17174;DHT22;8702;48.130;-1.696;2023-04-25T01:11:11;9.80;99.90
17174;DHT22;8702;48.130;-1.696;2023-04-25T01:13:38;9.70;99.90
17174;DHT22;8702;48.130;-1.696;2023-04-25T01:16:05;9.70;99.90
17174;DHT22;8702;48.130;-1.696;2023-04-25T01:18:34;9.60;99.90
17174;DHT22;8702;48.130;-1.696;2023-04-25T01:21:09;9.50;99.90
17174;DHT22;8702;48.130;-1.696;2023-04-25T01:23:36;9.60;99.90
17174;DHT22;8702;48.130;-1.696;2023-04-25T01:26:04;9.50;99.90
17174;DHT22;8702;48.130;-1.696;2023-04-25T01:28:33;9.50;99.90
17174;DHT22;8702;48.130;-1.696;2023-04-25T01:31:01;9.50;99.90
17174;DHT22;8702;48.130;-1.696;2023-04-25T01:33:28;9.50;99.90
17174;DHT22;8702;48.130;-1.696;2023-04-25T01:35:55;9.50;99.90
17174;DHT22;8702;48.130;-1.696;2023-04-25T01:38:24;9.40;99.90
17174;DHT22;8702;48.130;-1.696;2023-04-25T01:40:52;9.30;99.90
17174;DHT22;8702;48.130;-1.696;2023-04-25T01:43:20;9.30;99.90
17174;DHT22;8702;48.130;-1.696;2023-04-25T01:45:48;9.10;99.90
17174;DHT22;8702;48.130;-1.696;2023-04-25T01:48:17;9.10;99.90
17174;DHT22;8702;48.130;-1.696;2023-04-25T01:50:44;9.10;99.90
17174;DHT22;8702;48.130;-1.696;2023-04-25T01:53:13;9.00;99.90
17174;DHT22;8702;48.130;-1.696;2023-04-25T01:55:42;9.10;99.90
17174;DHT22;8702;48.130;-1.696;2023-04-25T01:58:09;9.10;99.90
17174;DHT22;8702;48.130;-1.696;2023-04-25T02:00:38;9.10;99.90
17174;DHT22;8702;48.130;-1.696;2023-04-25T02:03:06;9.10;99.90
17174;DHT22;8702;48.130;-1.696;2023-04-25T02:05:37;9.00;99.90
17174;DHT22;8702;48.130;-1.696;2023-04-25T02:08:05;9.00;99.90
17174;DHT22;8702;48.130;-1.696;2023-04-25T02:10:33;9.00;99.90
17174;DHT22;8702;48.130;-1.696;2023-04-25T02:13:02;9.00;99.90
17174;DHT22;8702;48.130;-1.696;2023-04-25T02:15:30;8.90;99.90
17174;DHT22;8702;48.130;-1.696;2023-04-25T02:17:56;8.90;99.90
17174;DHT22;8702;48.130;-1.696;2023-04-25T02:20:26;8.90;99.90
17174;DHT22;8702;48.130;-1.696;2023-04-25T02:22:53;8.90;99.90
17174;DHT22;8702;48.130;-1.696;2023-04-25T02:25:20;8.80;99.90
17174;DHT22;8702;48.130;-1.696;2023-04-25T02:27:48;8.80;99.90
17174;DHT22;8702;48.130;-1.696;2023-04-25T02:30:17;8.80;99.90
17174;DHT22;8702;48.130;-1.696;2023-04-25T02:32:44;8.80;99.90
17174;DHT22;8702;48.130;-1.696;2023-04-25T02:35:11;8.80;99.90
17174;DHT22;8702;48.130;-1.696;2023-04-25T02:37:39;8.70;99.90
17174;DHT22;8702;48.130;-1.696;2023-04-25T02:40:07;8.70;99.90
17174;DHT22;8702;48.130;-1.696;2023-04-25T02:42:35;8.70;99.90
17174;DHT22;8702;48.130;-1.696;2023-04-25T02:45:02;8.50;99.90
17174;DHT22;8702;48.130;-1.696;2023-04-25T02:47:30;8.50;99.90
17174;DHT22;8702;48.130;-1.696;2023-04-25T02:49:57;8.50;99.90
17174;DHT22;8702;48.130;-1.696;2023-04-25T02:52:24;8.50;99.90
17174;DHT22;8702;48.130;-1.696;2023-04-25T02:54:51;8.50;99.90
17174;DHT22;8702;48.130;-1.696;2023-04-25T02:57:18;8.40;99.90
17174;DHT22;8702;48.130;-1.696;2023-04-25T02:59:45;8.40;99.90
17174;DHT22;8702;48.130;-1.696;2023-04-25T03:02:12;8.40;99.90
17174;DHT22;8702;48.130;-1.696;2023-04-25T03:04:40;8.40;99.90
17174;DHT22;8702;48.130;-1.696;2023-04-25T03:07:07;8.40;99.90
17174;DHT22;8702;48.130;-1.696;2023-04-25T03:09:34;8.40;99.90
17174;DHT22;8702;48.130;-1.696;2023-04-25T03:12:01;8.40;99.90
17174;DHT22;8702;48.130;-1.696;2023-04-25T03:14:28;8.40;99.90
17174;DHT22;8702;48.130;-1.696;2023-04-25T03:16:55;8.40;99.90
17174;DHT22;8702;48.130;-1.696;2023-04-25T03:19:22;8.40;99.90
17174;DHT22;8702;48.130;-1.696;2023-04-25T03:21:51;8.50;99.90
17174;DHT22;8702;48.130;-1.696;2023-04-25T03:24:19;8.40;99.90
17174;DHT22;8702;48.130;-1.696;2023-04-25T03:26:46;8.30;99.90
17174;DHT22;8702;48.130;-1.696;2023-04-25T03:29:13;8.30;99.90
17174;DHT22;8702;48.130;-1.696;2023-04-25T03:31:40;8.30;99.90
17174;DHT22;8702;48.130;-1.696;2023-04-25T03:34:07;8.30;99.90
17174;DHT22;8702;48.130;-1.696;2023-04-25T03:36:33;8.30;99.90
17174;DHT22;8702;48.130;-1.696;2023-04-25T03:39:02;8.20;99.90
17174;DHT22;8702;48.130;-1.696;2023-04-25T03:41:29;8.20;99.90
17174;DHT22;8702;48.130;-1.696;2023-04-25T03:43:56;8.10;99.90
17174;DHT22;8702;48.130;-1.696;2023-04-25T03:46:23;8.00;99.90
17174;DHT22;8702;48.130;-1.696;2023-04-25T03:48:49;8.00;99.90
17174;DHT22;8702;48.130;-1.696;2023-04-25T03:51:19;8.20;99.90
17174;DHT22;8702;48.130;-1.696;2023-04-25T03:53:47;7.90;99.90
17174;DHT22;8702;48.130;-1.696;2023-04-25T03:56:15;7.90;99.90
17174;DHT22;8702;48.130;-1.696;2023-04-25T03:58:42;7.80;99.90
17174;DHT22;8702;48.130;-1.696;2023-04-25T04:01:09;7.70;99.90
17174;DHT22;8702;48.130;-1.696;2023-04-25T04:28:16;8.20;99.90
17174;DHT22;8702;48.130;-1.696;2023-04-25T04:30:44;8.10;99.90
17174;DHT22;8702;48.130;-1.696;2023-04-25T04:33:12;8.10;99.90
17174;DHT22;8702;48.130;-1.696;2023-04-25T04:35:41;8.00;99.90
17174;DHT22;8702;48.130;-1.696;2023-04-25T04:38:10;8.00;99.90
17174;DHT22;8702;48.130;-1.696;2023-04-25T04:40:37;8.00;99.90
17174;DHT22;8702;48.130;-1.696;2023-04-25T04:43:04;8.00;99.90
17174;DHT22;8702;48.130;-1.696;2023-04-25T04:48:04;8.30;99.90
17174;DHT22;8702;48.130;-1.696;2023-04-25T04:50:31;8.10;99.90
17174;DHT22;8702;48.130;-1.696;2023-04-25T05:10:19;8.10;99.90
17174;DHT22;8702;48.130;-1.696;2023-04-25T05:12:46;8.10;99.90
17174;DHT22;8702;48.130;-1.696;2023-04-25T05:15:14;8.00;99.90
17174;DHT22;8702;48.130;-1.696;2023-04-25T05:17:41;8.00;99.90
17174;DHT22;8702;48.130;-1.696;2023-04-25T05:20:08;7.90;99.90
17174;DHT22;8702;48.130;-1.696;2023-04-25T05:22:37;7.90;99.90
17174;DHT22;8702;48.130;-1.696;2023-04-25T05:25:04;7.90;99.90
17174;DHT22;8702;48.130;-1.696;2023-04-25T05:27:32;7.90;99.90
17174;DHT22;8702;48.130;-1.696;2023-04-25T05:29:59;7.90;99.90
17174;DHT22;8702;48.130;-1.696;2023-04-25T05:32:26;7.80;99.90
17174;DHT22;8702;48.130;-1.696;2023-04-25T05:34:53;7.80;99.90
17174;DHT22;8702;48.130;-1.696;2023-04-25T05:37:20;7.80;99.90
17174;DHT22;8702;48.130;-1.696;2023-04-25T05:39:48;7.80;99.90
17174;DHT22;8702;48.130;-1.696;2023-04-25T06:29:27;8.90;99.90
17174;DHT22;8702;48.130;-1.696;2023-04-25T06:31:55;8.90;99.90
17174;DHT22;8702;48.130;-1.696;2023-04-25T06:34:22;8.80;99.90
17174;DHT22;8702;48.130;-1.696;2023-04-25T06:36:49;8.80;99.90
17174;DHT22;8702;48.130;-1.696;2023-04-25T06:39:16;8.70;99.90
17174;DHT22;8702;48.130;-1.696;2023-04-25T06:41:45;8.60;99.90
17174;DHT22;8702;48.130;-1.696;2023-04-25T06:46:39;8.80;99.90
17174;DHT22;8702;48.130;-1.696;2023-04-25T06:49:08;8.90;99.90
17174;DHT22;8702;48.130;-1.696;2023-04-25T06:51:34;9.00;99.90
17174;DHT22;8702;48.130;-1.696;2023-04-25T06:54:01;9.00;99.90
17174;DHT22;8702;48.130;-1.696;2023-04-25T06:56:29;9.10;99.90
17174;DHT22;8702;48.130;-1.696;2023-04-25T06:58:56;9.10;99.90
17174;DHT22;8702;48.130;-1.696;2023-04-25T07:01:24;9.20;99.90
17174;DHT22;8702;48.130;-1.696;2023-04-25T07:03:51;9.40;99.90
17174;DHT22;8702;48.130;-1.696;2023-04-25T07:06:19;9.50;99.90
17174;DHT22;8702;48.130;-1.696;2023-04-25T07:08:46;9.50;99.90
17174;DHT22;8702;48.130;-1.696;2023-04-25T07:11:13;9.50;99.90
17174;DHT22;8702;48.130;-1.696;2023-04-25T07:13:40;9.60;99.90
17174;DHT22;8702;48.130;-1.696;2023-04-25T07:16:07;9.60;99.90
17174;DHT22;8702;48.130;-1.696;2023-04-25T07:18:34;9.70;99.90
17174;DHT22;8702;48.130;-1.696;2023-04-25T07:21:01;9.70;99.90
17174;DHT22;8702;48.130;-1.696;2023-04-25T07:23:29;9.80;99.90
17174;DHT22;8702;48.130;-1.696;2023-04-25T07:25:56;9.90;99.90
17174;DHT22;8702;48.130;-1.696;2023-04-25T07:28:23;9.90;99.90
17174;DHT22;8702;48.130;-1.696;2023-04-25T07:30:54;10.00;99.90
17174;DHT22;8702;48.130;-1.696;2023-04-25T07:33:21;9.60;99.90
17174;DHT22;8702;48.130;-1.696;2023-04-25T07:35:48;10.10;99.90
17174;DHT22;8702;48.130;-1.696;2023-04-25T07:38:15;10.10;99.90
17174;DHT22;8702;48.130;-1.696;2023-04-25T07:40:44;10.20;99.90
17174;DHT22;8702;48.130;-1.696;2023-04-25T07:43:10;10.30;99.90
17174;DHT22;8702;48.130;-1.696;2023-04-25T07:45:40;10.20;99.90
17174;DHT22;8702;48.130;-1.696;2023-04-25T07:48:07;10.30;99.90
17174;DHT22;8702;48.130;-1.696;2023-04-25T07:50:34;10.30;99.90
17174;DHT22;8702;48.130;-1.696;2023-04-25T07:53:01;10.30;99.90
17174;DHT22;8702;48.130;-1.696;2023-04-25T07:55:28;10.40;99.90
17174;DHT22;8702;48.130;-1.696;2023-04-25T07:57:57;10.30;99.90
17174;DHT22;8702;48.130;-1.696;2023-04-25T08:00:24;10.30;99.90
17174;DHT22;8702;48.130;-1.696;2023-04-25T08:02:50;10.40;99.90
17174;DHT22;8702;48.130;-1.696;2023-04-25T08:05:18;10.40;99.90
17174;DHT22;8702;48.130;-1.696;2023-04-25T08:07:45;10.50;99.90
17174;DHT22;8702;48.130;-1.696;2023-04-25T08:10:12;10.60;99.90
17174;DHT22;8702;48.130;-1.696;2023-04-25T08:12:38;10.70;99.90
17174;DHT22;8702;48.130;-1.696;2023-04-25T08:15:08;10.70;99.90
17174;DHT22;8702;48.130;-1.696;2023-04-25T08:17:35;10.70;99.90
17174;DHT22;8702;48.130;-1.696;2023-04-25T08:20:04;10.90;99.90
17174;DHT22;8702;48.130;-1.696;2023-04-25T08:22:32;10.70;99.90
17174;DHT22;8702;48.130;-1.696;2023-04-25T08:24:59;10.80;99.90
17174;DHT22;8702;48.130;-1.696;2023-04-25T08:27:26;10.90;99.90
17174;DHT22;8702;48.130;-1.696;2023-04-25T08:29:53;11.00;99.90
17174;DHT22;8702;48.130;-1.696;2023-04-25T08:32:21;11.00;99.90
17174;DHT22;8702;48.130;-1.696;2023-04-25T08:34:48;11.00;99.90
17174;DHT22;8702;48.130;-1.696;2023-04-25T08:37:18;11.20;99.90
17174;DHT22;8702;48.130;-1.696;2023-04-25T08:42:16;11.10;99.90
17174;DHT22;8702;48.130;-1.696;2023-04-25T08:47:13;11.30;99.90
17174;DHT22;8702;48.130;-1.696;2023-04-25T08:49:44;11.30;99.90
17174;DHT22;8702;48.130;-1.696;2023-04-25T08:52:13;11.40;99.90
17174;DHT22;8702;48.130;-1.696;2023-04-25T08:57:12;11.50;99.90
17174;DHT22;8702;48.130;-1.696;2023-04-25T08:59:41;11.50;99.90
17174;DHT22;8702;48.130;-1.696;2023-04-25T09:02:11;11.60;99.90
17174;DHT22;8702;48.130;-1.696;2023-04-25T09:09:41;11.60;99.90
17174;DHT22;8702;48.130;-1.696;2023-04-25T09:12:08;11.60;99.90
17174;DHT22;8702;48.130;-1.696;2023-04-25T09:14:35;11.70;99.90
17174;DHT22;8702;48.130;-1.696;2023-04-25T09:17:04;11.70;99.90
17174;DHT22;8702;48.130;-1.696;2023-04-25T09:19:34;11.90;99.90
17174;DHT22;8702;48.130;-1.696;2023-04-25T09:22:04;12.00;99.90
17174;DHT22;8702;48.130;-1.696;2023-04-25T09:24:35;12.30;99.90
17174;DHT22;8702;48.130;-1.696;2023-04-25T09:27:08;12.30;99.90
17174;DHT22;8702;48.130;-1.696;2023-04-25T09:32:15;12.90;99.90
17174;DHT22;8702;48.130;-1.696;2023-04-25T09:34:45;12.10;99.90
17174;DHT22;8702;48.130;-1.696;2023-04-25T09:37:17;12.10;99.90
17174;DHT22;8702;48.130;-1.696;2023-04-25T09:39:47;12.10;99.90
17174;DHT22;8702;48.130;-1.696;2023-04-25T09:42:15;12.00;99.90
17174;DHT22;8702;48.130;-1.696;2023-04-25T09:44:43;12.10;99.90
17174;DHT22;8702;48.130;-1.696;2023-04-25T09:47:12;12.20;99.90
17174;DHT22;8702;48.130;-1.696;2023-04-25T09:49:41;12.40;99.90
17174;DHT22;8702;48.130;-1.696;2023-04-25T09:52:10;12.60;99.90
17174;DHT22;8702;48.130;-1.696;2023-04-25T09:54:41;12.60;99.90
17174;DHT22;8702;48.130;-1.696;2023-04-25T09:57:11;12.60;99.90
17174;DHT22;8702;48.130;-1.696;2023-04-25T09:59:40;12.70;99.90
17174;DHT22;8702;48.130;-1.696;2023-04-25T10:02:09;12.70;99.90
17174;DHT22;8702;48.130;-1.696;2023-04-25T10:04:37;12.60;99.90
17174;DHT22;8702;48.130;-1.696;2023-04-25T10:07:06;12.70;99.90
17174;DHT22;8702;48.130;-1.696;2023-04-25T10:09:33;12.70;99.90
17174;DHT22;8702;48.130;-1.696;2023-04-25T10:12:04;12.90;99.90
17174;DHT22;8702;48.130;-1.696;2023-04-25T10:16:59;12.80;99.90
17174;DHT22;8702;48.130;-1.696;2023-04-25T10:19:27;12.80;99.90
17174;DHT22;8702;48.130;-1.696;2023-04-25T10:22:02;13.00;99.90
17174;DHT22;8702;48.130;-1.696;2023-04-25T10:24:30;13.10;99.90
17174;DHT22;8702;48.130;-1.696;2023-04-25T10:26:57;13.10;99.90
17174;DHT22;8702;48.130;-1.696;2023-04-25T10:29:26;13.20;99.90
17174;DHT22;8702;48.130;-1.696;2023-04-25T10:31:54;13.30;99.90
17174;DHT22;8702;48.130;-1.696;2023-04-25T10:34:24;13.30;99.90
17174;DHT22;8702;48.130;-1.696;2023-04-25T10:36:52;13.30;99.90
17174;DHT22;8702;48.130;-1.696;2023-04-25T10:39:24;13.40;99.90
17174;DHT22;8702;48.130;-1.696;2023-04-25T10:44:28;13.50;99.90
17174;DHT22;8702;48.130;-1.696;2023-04-25T10:46:55;13.50;99.90
17174;DHT22;8702;48.130;-1.696;2023-04-25T10:52:13;13.40;99.90
17174;DHT22;8702;48.130;-1.696;2023-04-25T10:54:41;13.50;99.90
17174;DHT22;8702;48.130;-1.696;2023-04-25T10:57:27;13.60;99.90
17174;DHT22;8702;48.130;-1.696;2023-04-25T10:59:58;13.70;99.90
17174;DHT22;8702;48.130;-1.696;2023-04-25T11:04:54;13.90;99.90
17174;DHT22;8702;48.130;-1.696;2023-04-25T11:07:29;13.90;99.90
17174;DHT22;8702;48.130;-1.696;2023-04-25T11:10:01;14.00;99.90
17174;DHT22;8702;48.130;-1.696;2023-04-25T11:12:30;14.00;99.90
17174;DHT22;8702;48.130;-1.696;2023-04-25T11:15:00;14.00;99.90
17174;DHT22;8702;48.130;-1.696;2023-04-25T11:17:28;13.90;99.90
17174;DHT22;8702;48.130;-1.696;2023-04-25T11:19:56;14.00;99.90
17174;DHT22;8702;48.130;-1.696;2023-04-25T11:22:23;14.00;99.90
17174;DHT22;8702;48.130;-1.696;2023-04-25T11:24:50;13.90;99.90
17174;DHT22;8702;48.130;-1.696;2023-04-25T11:27:17;14.00;99.90
17174;DHT22;8702;48.130;-1.696;2023-04-25T11:29:44;14.10;99.90
17174;DHT22;8702;48.130;-1.696;2023-04-25T11:32:15;14.10;99.90
17174;DHT22;8702;48.130;-1.696;2023-04-25T11:52:10;14.90;99.90
17174;DHT22;8702;48.130;-1.696;2023-04-25T11:57:06;15.80;99.90
17174;DHT22;8702;48.130;-1.696;2023-04-25T11:59:33;14.50;99.90
17174;DHT22;8702;48.130;-1.696;2023-04-25T12:02:00;14.60;99.90
17174;DHT22;8702;48.130;-1.696;2023-04-25T12:04:30;14.60;99.90
17174;DHT22;8702;48.130;-1.696;2023-04-25T12:17:00;14.70;99.90
17174;DHT22;8702;48.130;-1.696;2023-04-25T12:19:35;14.80;99.90
17174;DHT22;8702;48.130;-1.696;2023-04-25T12:22:08;14.90;99.90
17174;DHT22;8702;48.130;-1.696;2023-04-25T12:24:45;14.90;99.90
17174;DHT22;8702;48.130;-1.696;2023-04-25T12:27:14;15.00;99.90
17174;DHT22;8702;48.130;-1.696;2023-04-25T12:29:52;14.90;99.90
17174;DHT22;8702;48.130;-1.696;2023-04-25T12:32:19;14.80;99.90
17174;DHT22;8702;48.130;-1.696;2023-04-25T12:34:46;14.80;99.90
17174;DHT22;8702;48.130;-1.696;2023-04-25T12:37:14;14.90;99.90
17174;DHT22;8702;48.130;-1.696;2023-04-25T12:39:42;15.00;99.90
17174;DHT22;8702;48.130;-1.696;2023-04-25T12:42:08;15.10;99.90
17174;DHT22;8702;48.130;-1.696;2023-04-25T12:49:33;15.10;99.90
17174;DHT22;8702;48.130;-1.696;2023-04-25T12:52:00;15.20;99.90
17174;DHT22;8702;48.130;-1.696;2023-04-25T12:54:28;15.20;99.90
17174;DHT22;8702;48.130;-1.696;2023-04-25T12:56:55;15.30;99.90
17174;DHT22;8702;48.130;-1.696;2023-04-25T13:16:39;15.60;99.90
17174;DHT22;8702;48.130;-1.696;2023-04-25T13:21:36;15.70;99.90
17174;DHT22;8702;48.130;-1.696;2023-04-25T13:24:04;15.70;99.90
17174;DHT22;8702;48.130;-1.696;2023-04-25T14:01:08;16.40;98.50
17174;DHT22;8702;48.130;-1.696;2023-04-25T14:03:36;16.20;99.10
17174;DHT22;8702;48.130;-1.696;2023-04-25T14:06:03;16.20;99.10
17174;DHT22;8702;48.130;-1.696;2023-04-25T14:08:31;16.20;99.20
17174;DHT22;8702;48.130;-1.696;2023-04-25T14:10:58;16.30;99.30
17174;DHT22;8702;48.130;-1.696;2023-04-25T14:13:24;16.30;98.70
17174;DHT22;8702;48.130;-1.696;2023-04-25T14:15:51;16.30;98.70
17174;DHT22;8702;48.130;-1.696;2023-04-25T14:18:18;16.30;99.20
17174;DHT22;8702;48.130;-1.696;2023-04-25T14:20:47;16.20;99.90
17174;DHT22;8702;48.130;-1.696;2023-04-25T14:23:14;16.30;99.90
17174;DHT22;8702;48.130;-1.696;2023-04-25T14:25:43;16.20;99.90
17174;DHT22;8702;48.130;-1.696;2023-04-25T14:28:10;16.30;99.90
17174;DHT22;8702;48.130;-1.696;2023-04-25T14:30:37;16.40;99.90
17174;DHT22;8702;48.130;-1.696;2023-04-25T14:33:04;16.40;99.90
17174;DHT22;8702;48.130;-1.696;2023-04-25T14:35:31;16.70;99.90
17174;DHT22;8702;48.130;-1.696;2023-04-25T14:37:59;16.50;99.90
17174;DHT22;8702;48.130;-1.696;2023-04-25T14:40:26;16.50;99.90
17174;DHT22;8702;48.130;-1.696;2023-04-25T14:42:53;16.50;99.90
17174;DHT22;8702;48.130;-1.696;2023-04-25T14:45:20;16.50;99.90
17174;DHT22;8702;48.130;-1.696;2023-04-25T14:47:47;16.50;99.90
17174;DHT22;8702;48.130;-1.696;2023-04-25T14:50:14;16.40;99.90
17174;DHT22;8702;48.130;-1.696;2023-04-25T14:52:41;16.50;99.90
17174;DHT22;8702;48.130;-1.696;2023-04-25T14:55:10;16.50;99.90
17174;DHT22;8702;48.130;-1.696;2023-04-25T14:57:37;16.50;99.90
17174;DHT22;8702;48.130;-1.696;2023-04-25T15:00:08;16.70;99.90
17174;DHT22;8702;48.130;-1.696;2023-04-25T15:02:35;16.50;99.90
17174;DHT22;8702;48.130;-1.696;2023-04-25T15:05:05;16.20;99.90
17174;DHT22;8702;48.130;-1.696;2023-04-25T15:07:32;16.50;99.90
17174;DHT22;8702;48.130;-1.696;2023-04-25T15:10:00;16.50;99.90
17174;DHT22;8702;48.130;-1.696;2023-04-25T15:12:28;16.50;99.90
17174;DHT22;8702;48.130;-1.696;2023-04-25T15:14:55;16.70;99.90
17174;DHT22;8702;48.130;-1.696;2023-04-25T15:22:17;16.70;95.60
17174;DHT22;8702;48.130;-1.696;2023-04-25T15:24:44;16.60;97.10
17174;DHT22;8702;48.130;-1.696;2023-04-25T15:27:11;16.30;99.90
17174;DHT22;8702;48.130;-1.696;2023-04-25T15:29:40;16.30;99.20
17174;DHT22;8702;48.130;-1.696;2023-04-25T15:32:08;16.40;98.90
17174;DHT22;8702;48.130;-1.696;2023-04-25T15:34:35;16.40;99.50
17174;DHT22;8702;48.130;-1.696;2023-04-25T15:37:02;16.40;99.20
17174;DHT22;8702;48.130;-1.696;2023-04-25T15:39:29;16.40;99.90
17174;DHT22;8702;48.130;-1.696;2023-04-25T15:41:56;16.20;99.00
17174;DHT22;8702;48.130;-1.696;2023-04-25T15:44:23;16.20;99.30
17174;DHT22;8702;48.130;-1.696;2023-04-25T15:46:52;16.10;99.90
17174;DHT22;8702;48.130;-1.696;2023-04-25T15:49:19;16.20;99.90
17174;DHT22;8702;48.130;-1.696;2023-04-25T15:51:46;16.10;99.60
17174;DHT22;8702;48.130;-1.696;2023-04-25T15:54:13;15.50;99.50
17174;DHT22;8702;48.130;-1.696;2023-04-25T15:56:40;16.00;99.90
17174;DHT22;8702;48.130;-1.696;2023-04-25T15:59:07;16.10;99.60
17174;DHT22;8702;48.130;-1.696;2023-04-25T16:01:34;16.10;99.90
17174;DHT22;8702;48.130;-1.696;2023-04-25T16:04:04;16.30;99.90
17174;DHT22;8702;48.130;-1.696;2023-04-25T16:06:31;16.10;99.90
17174;DHT22;8702;48.130;-1.696;2023-04-25T16:08:58;16.00;99.60
17174;DHT22;8702;48.130;-1.696;2023-04-25T16:11:25;16.00;99.90
17174;DHT22;8702;48.130;-1.696;2023-04-25T16:13:53;16.00;99.90
17174;DHT22;8702;48.130;-1.696;2023-04-25T16:16:20;16.00;99.90
17174;DHT22;8702;48.130;-1.696;2023-04-25T16:18:47;16.00;99.90
17174;DHT22;8702;48.130;-1.696;2023-04-25T16:21:16;15.70;99.90
17174;DHT22;8702;48.130;-1.696;2023-04-25T16:23:43;16.20;99.90
17174;DHT22;8702;48.130;-1.696;2023-04-25T16:26:10;15.90;99.90
17174;DHT22;8702;48.130;-1.696;2023-04-25T16:28:37;15.90;99.90
17174;DHT22;8702;48.130;-1.696;2023-04-25T16:31:04;15.90;99.90
17174;DHT22;8702;48.130;-1.696;2023-04-25T16:33:31;15.90;99.90
17174;DHT22;8702;48.130;-1.696;2023-04-25T16:35:58;16.00;99.90
17174;DHT22;8702;48.130;-1.696;2023-04-25T16:38:26;16.00;99.90
17174;DHT22;8702;48.130;-1.696;2023-04-25T16:40:53;16.10;99.90
17174;DHT22;8702;48.130;-1.696;2023-04-25T16:43:20;16.00;99.90
17174;DHT22;8702;48.130;-1.696;2023-04-25T16:45:47;16.10;99.90
17174;DHT22;8702;48.130;-1.696;2023-04-25T16:48:14;16.10;99.90
17174;DHT22;8702;48.130;-1.696;2023-04-25T16:50:44;16.10;99.90
17174;DHT22;8702;48.130;-1.696;2023-04-25T16:53:11;16.10;99.90
17174;DHT22;8702;48.130;-1.696;2023-04-25T16:55:40;16.10;99.90
17174;DHT22;8702;48.130;-1.696;2023-04-25T16:58:09;16.10;99.90
17174;DHT22;8702;48.130;-1.696;2023-04-25T17:00:36;16.00;99.90
17174;DHT22;8702;48.130;-1.696;2023-04-25T17:03:04;16.00;99.90
17174;DHT22;8702;48.130;-1.696;2023-04-25T17:05:31;16.00;99.90
17174;DHT22;8702;48.130;-1.696;2023-04-25T17:07:58;16.00;99.90
17174;DHT22;8702;48.130;-1.696;2023-04-25T17:10:25;16.10;99.90
17174;DHT22;8702;48.130;-1.696;2023-04-25T17:12:54;16.00;99.90
17174;DHT22;8702;48.130;-1.696;2023-04-25T17:15:21;16.00;99.90
17174;DHT22;8702;48.130;-1.696;2023-04-25T17:17:48;16.00;99.90
17174;DHT22;8702;48.130;-1.696;2023-04-25T17:20:15;16.00;99.90
17174;DHT22;8702;48.130;-1.696;2023-04-25T17:22:42;15.90;99.90
17174;DHT22;8702;48.130;-1.696;2023-04-25T17:25:09;15.90;99.90
17174;DHT22;8702;48.130;-1.696;2023-04-25T17:27:36;15.90;99.80
17174;DHT22;8702;48.130;-1.696;2023-04-25T17:30:06;15.90;99.90
17174;DHT22;8702;48.130;-1.696;2023-04-25T17:32:34;15.80;99.90
17174;DHT22;8702;48.130;-1.696;2023-04-25T17:35:01;15.80;99.90
17174;DHT22;8702;48.130;-1.696;2023-04-25T17:37:28;15.70;99.90
17174;DHT22;8702;48.130;-1.696;2023-04-25T17:39:55;15.70;99.90
17174;DHT22;8702;48.130;-1.696;2023-04-25T17:42:22;15.80;99.90
17174;DHT22;8702;48.130;-1.696;2023-04-25T17:44:49;15.90;99.90
17174;DHT22;8702;48.130;-1.696;2023-04-25T17:47:18;15.80;99.90
17174;DHT22;8702;48.130;-1.696;2023-04-25T17:49:45;15.90;99.90
17174;DHT22;8702;48.130;-1.696;2023-04-25T17:52:12;15.90;99.90
17174;DHT22;8702;48.130;-1.696;2023-04-25T17:54:39;15.90;99.90
17174;DHT22;8702;48.130;-1.696;2023-04-25T17:57:06;15.90;99.90
17174;DHT22;8702;48.130;-1.696;2023-04-25T17:59:33;15.90;99.90
17174;DHT22;8702;48.130;-1.696;2023-04-25T18:02:01;15.90;99.90
17174;DHT22;8702;48.130;-1.696;2023-04-25T18:04:29;15.80;99.90
17174;DHT22;8702;48.130;-1.696;2023-04-25T18:06:57;15.90;99.90
17174;DHT22;8702;48.130;-1.696;2023-04-25T18:09:24;15.70;99.90
17174;DHT22;8702;48.130;-1.696;2023-04-25T18:11:52;15.70;99.90
17174;DHT22;8702;48.130;-1.696;2023-04-25T18:14:20;15.70;99.90
17174;DHT22;8702;48.130;-1.696;2023-04-25T18:16:48;15.60;99.90
17174;DHT22;8702;48.130;-1.696;2023-04-25T18:19:17;15.60;99.90
17174;DHT22;8702;48.130;-1.696;2023-04-25T18:21:48;15.60;99.90
17174;DHT22;8702;48.130;-1.696;2023-04-25T18:24:17;15.60;99.90
17174;DHT22;8702;48.130;-1.696;2023-04-25T18:26:44;15.60;99.90
17174;DHT22;8702;48.130;-1.696;2023-04-25T18:29:13;15.50;99.90
17174;DHT22;8702;48.130;-1.696;2023-04-25T18:31:41;15.50;99.90
17174;DHT22;8702;48.130;-1.696;2023-04-25T18:34:08;15.50;99.90
17174;DHT22;8702;48.130;-1.696;2023-04-25T18:36:35;15.50;99.90
17174;DHT22;8702;48.130;-1.696;2023-04-25T18:39:04;15.40;99.10
17174;DHT22;8702;48.130;-1.696;2023-04-25T18:41:32;15.40;99.10
17174;DHT22;8702;48.130;-1.696;2023-04-25T18:43:59;15.40;99.10
17174;DHT22;8702;48.130;-1.696;2023-04-25T18:46:27;15.50;99.90
17174;DHT22;8702;48.130;-1.696;2023-04-25T18:48:54;15.50;99.90
17174;DHT22;8702;48.130;-1.696;2023-04-25T18:51:22;15.50;99.50
17174;DHT22;8702;48.130;-1.696;2023-04-25T18:53:52;15.50;99.90
17174;DHT22;8702;48.130;-1.696;2023-04-25T18:56:20;15.30;99.90
17174;DHT22;8702;48.130;-1.696;2023-04-25T18:58:48;15.30;99.90
17174;DHT22;8702;48.130;-1.696;2023-04-25T19:01:16;15.30;99.90
17174;DHT22;8702;48.130;-1.696;2023-04-25T19:03:43;15.30;99.90
17174;DHT22;8702;48.130;-1.696;2023-04-25T19:06:10;15.20;99.90
17174;DHT22;8702;48.130;-1.696;2023-04-25T19:08:37;15.10;99.90
17174;DHT22;8702;48.130;-1.696;2023-04-25T19:11:04;15.20;99.70
17174;DHT22;8702;48.130;-1.696;2023-04-25T19:13:33;15.20;99.90